createdAt,value
2018-06-10T00:00:23.090Z,23.23
2018-06-10T00:02:52.197Z,22.57
2018-06-10T00:05:21.321Z,22.57
2018-06-10T00:07:50.430Z,21.23
2018-06-10T00:10:19.574Z,23.07
2018-06-10T00:12:48.666Z,17.57
2018-06-10T00:15:17.809Z,17.20
2018-06-10T00:17:46.940Z,16.80
2018-06-10T00:20:16.065Z,16.30
2018-06-10T00:22:45.178Z,16.90
2018-06-10T00:25:14.313Z,16.93
2018-06-10T00:27:43.429Z,18.87
2018-06-10T00:30:12.585Z,17.43
2018-06-10T00:32:41.691Z,14.80
2018-06-10T00:35:10.819Z,16.80
2018-06-10T00:37:39.925Z,13.77
2018-06-10T00:40:09.061Z,12.20
2018-06-10T00:42:38.166Z,17.07
2018-06-10T00:45:07.303Z,15.97
2018-06-10T00:47:36.453Z,15.17
2018-06-10T00:50:05.573Z,14.07
2018-06-10T00:52:34.698Z,14.77
2018-06-10T00:55:03.825Z,14.13
2018-06-10T00:57:32.936Z,15.17
2018-06-10T01:00:02.030Z,12.87
2018-06-10T01:02:31.166Z,13.23
2018-06-10T01:05:00.277Z,13.73
2018-06-10T01:07:29.400Z,14.43
2018-06-10T01:09:58.508Z,14.50
2018-06-10T01:12:27.625Z,12.47
2018-06-10T01:14:56.745Z,11.70
2018-06-10T01:17:25.863Z,14.40
2018-06-10T01:19:54.998Z,11.30
2018-06-10T01:22:24.105Z,12.37
2018-06-10T01:24:53.225Z,12.80
2018-06-10T01:27:22.330Z,12.07
2018-06-10T01:29:51.454Z,13.27
2018-06-10T01:32:20.609Z,12.00
2018-06-10T01:34:49.759Z,16.40
2018-06-10T01:37:18.882Z,14.17
2018-06-10T01:39:48.002Z,13.77
2018-06-10T01:42:17.110Z,12.27
2018-06-10T01:44:46.217Z,12.37
2018-06-10T01:47:15.346Z,11.80
2018-06-10T01:49:44.462Z,13.60
2018-06-10T01:52:13.578Z,16.30
2018-06-10T01:54:42.681Z,12.67
2018-06-10T01:57:11.786Z,14.57
2018-06-10T01:59:40.920Z,15.20
2018-06-10T02:02:10.016Z,13.07
2018-06-10T02:04:39.136Z,15.83
2018-06-10T02:07:08.245Z,14.80
2018-06-10T02:09:37.361Z,14.07
2018-06-10T02:12:06.473Z,14.93
2018-06-10T02:14:35.681Z,14.10
2018-06-10T02:17:05.154Z,15.20
2018-06-10T02:19:34.265Z,13.43
2018-06-10T02:22:03.454Z,14.00
2018-06-10T02:24:32.562Z,15.80
2018-06-10T02:27:01.714Z,13.83
2018-06-10T02:29:30.830Z,13.50
2018-06-10T02:31:59.954Z,14.17
2018-06-10T02:34:29.073Z,14.93
2018-06-10T02:36:58.181Z,16.70
2018-06-10T02:39:27.295Z,19.73
2018-06-10T02:41:56.410Z,15.07
2018-06-10T02:44:25.564Z,17.57
2018-06-10T02:46:54.670Z,15.37
2018-06-10T02:49:23.796Z,18.67
2018-06-10T02:51:52.903Z,20.37
2018-06-10T02:54:22.023Z,19.67
2018-06-10T02:56:51.160Z,18.20
2018-06-10T02:59:20.267Z,18.43
2018-06-10T03:01:49.383Z,17.83
2018-06-10T03:04:18.498Z,14.77
2018-06-10T03:06:47.615Z,15.30
2018-06-10T03:09:16.726Z,14.73
2018-06-10T03:11:45.842Z,15.70
2018-06-10T03:14:14.941Z,14.20
2018-06-10T03:16:44.084Z,17.10
2018-06-10T03:19:13.198Z,17.27
2018-06-10T03:21:42.314Z,15.43
2018-06-10T03:24:11.430Z,17.97
2018-06-10T03:26:40.545Z,19.00
2018-06-10T03:29:09.646Z,15.87
2018-06-10T03:31:38.754Z,15.87
2018-06-10T03:34:07.854Z,14.63
2018-06-10T03:36:36.969Z,17.53
2018-06-10T03:39:07.506Z,17.63
2018-06-10T03:41:36.672Z,21.80
2018-06-10T03:44:05.777Z,17.50
2018-06-10T03:46:34.893Z,14.50
2018-06-10T03:49:03.978Z,13.97
2018-06-10T03:51:33.090Z,17.97
2018-06-10T03:54:02.221Z,18.23
2018-06-10T03:56:31.329Z,14.03
2018-06-10T03:59:00.440Z,17.03
2018-06-10T04:01:29.542Z,16.00
2018-06-10T04:03:59.026Z,14.03
2018-06-10T04:06:28.143Z,13.73
2018-06-10T04:08:57.254Z,15.10
2018-06-10T04:11:26.374Z,15.07
2018-06-10T04:13:55.490Z,16.37
2018-06-10T04:16:24.630Z,15.03
2018-06-10T04:18:53.738Z,14.07
2018-06-10T04:21:22.856Z,12.90
2018-06-10T04:23:51.954Z,14.97
2018-06-10T04:26:21.062Z,22.60
2018-06-10T04:28:50.167Z,15.17
2018-06-10T04:31:19.307Z,19.37
2018-06-10T04:33:48.431Z,16.40
2018-06-10T04:36:17.542Z,14.20
2018-06-10T04:38:46.658Z,16.97
2018-06-10T04:41:15.762Z,15.17
2018-06-10T04:43:44.877Z,15.63
2018-06-10T04:46:13.994Z,19.53
2018-06-10T04:48:43.104Z,16.43
2018-06-10T04:51:12.229Z,19.27
2018-06-10T04:53:41.330Z,17.17
2018-06-10T04:56:10.459Z,17.27
2018-06-10T04:58:39.550Z,17.67
2018-06-10T05:01:08.678Z,14.93
2018-06-10T05:03:37.789Z,24.03
2018-06-10T05:06:06.889Z,15.00
2018-06-10T05:08:36.006Z,19.40
2018-06-10T05:11:05.117Z,18.00
2018-06-10T05:13:34.241Z,18.63
2018-06-10T05:16:03.414Z,21.00
2018-06-10T05:18:32.782Z,19.10
2018-06-10T05:21:01.887Z,18.97
2018-06-10T05:23:31.473Z,17.90
2018-06-10T05:26:00.594Z,17.97
2018-06-10T05:28:29.694Z,14.33
2018-06-10T05:30:58.860Z,15.57
2018-06-10T05:33:27.979Z,16.23
2018-06-10T05:35:57.069Z,13.83
2018-06-10T05:38:26.198Z,15.37
2018-06-10T05:40:55.594Z,17.60
2018-06-10T05:43:24.778Z,15.87
2018-06-10T05:45:53.882Z,15.70
2018-06-10T05:48:23.006Z,13.67
2018-06-10T05:50:52.110Z,16.97
2018-06-10T05:53:21.221Z,15.17
2018-06-10T05:55:50.357Z,14.07
2018-06-10T05:58:19.462Z,14.17
2018-06-10T06:00:48.580Z,15.00
2018-06-10T06:03:17.690Z,12.43
2018-06-10T06:05:47.071Z,15.23
2018-06-10T06:08:16.187Z,13.43
2018-06-10T06:10:45.299Z,16.33
2018-06-10T06:13:14.426Z,14.80
2018-06-10T06:15:43.545Z,13.77
2018-06-10T06:18:12.669Z,16.57
2018-06-10T06:20:41.769Z,16.43
2018-06-10T06:23:10.905Z,15.03
2018-06-10T06:25:40.014Z,16.17
2018-06-10T06:28:09.106Z,14.40
2018-06-10T06:30:38.209Z,14.80
2018-06-10T06:33:07.318Z,16.77
2018-06-10T06:35:36.442Z,14.40
2018-06-10T06:38:05.561Z,15.93
2018-06-10T06:40:34.685Z,15.83
2018-06-10T06:43:03.803Z,15.60
2018-06-10T06:45:32.949Z,15.43
2018-06-10T06:48:04.208Z,17.60
2018-06-10T06:50:33.322Z,16.13
2018-06-10T06:53:02.534Z,19.10
2018-06-10T06:55:31.650Z,16.10
2018-06-10T06:58:00.802Z,18.87
2018-06-10T07:00:29.926Z,17.63
2018-06-10T07:02:59.038Z,17.77
2018-06-10T07:05:28.161Z,19.80
2018-06-10T07:07:57.284Z,15.13
2018-06-10T07:10:26.965Z,19.87
2018-06-10T07:12:58.986Z,18.87
2018-06-10T07:15:28.180Z,16.67
2018-06-10T07:17:57.591Z,19.27
2018-06-10T07:20:26.820Z,17.10
2018-06-10T07:22:56.055Z,15.80
2018-06-10T07:25:25.841Z,18.10
2018-06-10T07:27:55.023Z,16.93
2018-06-10T07:30:29.027Z,20.87
2018-06-10T07:32:58.445Z,19.03
2018-06-10T07:35:27.613Z,18.73
2018-06-10T07:37:56.733Z,20.33
2018-06-10T07:40:25.886Z,17.30
2018-06-10T07:42:55.241Z,16.53
2018-06-10T07:45:24.404Z,17.23
2018-06-10T07:47:53.674Z,18.57
2018-06-10T07:50:23.793Z,17.50
2018-06-10T07:52:52.962Z,19.23
2018-06-10T07:55:22.618Z,16.90
2018-06-10T07:57:51.898Z,21.50
2018-06-10T08:00:21.094Z,20.10
2018-06-10T08:02:50.202Z,16.73
2018-06-10T08:05:19.743Z,17.93
2018-06-10T08:07:48.837Z,18.27
2018-06-10T08:10:18.123Z,19.67
2018-06-10T08:12:47.283Z,20.87
2018-06-10T08:15:17.414Z,18.50
2018-06-10T08:17:46.558Z,20.60
2018-06-10T08:20:15.662Z,16.63
2018-06-10T08:22:44.774Z,20.57
2018-06-10T08:25:13.918Z,20.10
2018-06-10T08:27:43.034Z,19.27
2018-06-10T08:30:12.402Z,21.80
2018-06-10T08:32:41.572Z,17.23
2018-06-10T08:35:10.696Z,22.00
2018-06-10T08:37:39.807Z,27.47
2018-06-10T08:40:08.939Z,24.80
2018-06-10T08:42:38.045Z,23.27
2018-06-10T08:45:07.142Z,23.43
2018-06-10T08:47:36.249Z,23.27
2018-06-10T08:50:05.398Z,24.00
2018-06-10T08:52:34.509Z,23.00
2018-06-10T08:55:04.050Z,24.00
2018-06-10T08:57:33.184Z,27.07
2018-06-10T09:00:02.314Z,20.90
2018-06-10T09:02:31.448Z,27.77
2018-06-10T09:05:00.561Z,27.67
2018-06-10T09:07:29.777Z,28.90
2018-06-10T09:09:58.879Z,26.87
2018-06-10T09:12:28.006Z,25.47
2018-06-10T09:14:57.213Z,27.47
2018-06-10T09:17:26.342Z,26.77
2018-06-10T09:19:55.745Z,31.43
2018-06-10T09:22:25.541Z,35.83
2018-06-10T09:24:54.645Z,23.93
2018-06-10T09:27:24.024Z,25.77
2018-06-10T09:29:53.197Z,34.93
2018-06-10T09:32:22.316Z,34.97
2018-06-10T09:34:51.422Z,36.07
2018-06-10T09:37:20.597Z,34.07
2018-06-10T09:39:49.709Z,39.77
2018-06-10T09:42:18.833Z,35.00
2018-06-10T09:44:48.081Z,38.87
2018-06-10T09:47:17.282Z,41.03
2018-06-10T09:49:46.459Z,38.97
2018-06-10T09:52:15.621Z,37.30
2018-06-10T09:54:44.853Z,36.80
2018-06-10T09:57:14.011Z,38.60
2018-06-10T09:59:43.164Z,34.97
2018-06-10T10:02:12.342Z,33.67
2018-06-10T10:04:41.670Z,37.60
2018-06-10T10:07:10.846Z,38.40
2018-06-10T10:09:40.206Z,44.33
2018-06-10T10:12:09.370Z,50.33
2018-06-10T10:14:38.696Z,63.17
2018-06-10T10:17:07.962Z,66.43
2018-06-10T10:19:37.158Z,69.63
2018-06-10T10:22:07.425Z,70.70
2018-06-10T10:24:36.594Z,67.23
2018-06-10T10:27:05.897Z,68.40
2018-06-10T10:29:35.066Z,80.10
2018-06-10T10:32:04.218Z,77.87
2018-06-10T10:34:33.498Z,82.60
2018-06-10T10:37:02.679Z,75.37
2018-06-10T10:39:31.817Z,82.40
2018-06-10T10:42:00.934Z,78.43
2018-06-10T10:44:30.065Z,85.27
2018-06-10T10:46:59.189Z,72.93
2018-06-10T10:49:28.308Z,79.60
2018-06-10T10:51:57.542Z,82.77
2018-06-10T10:54:26.666Z,81.30
2018-06-10T10:56:55.774Z,79.37
2018-06-10T10:59:24.913Z,81.17
2018-06-10T11:01:54.119Z,75.03
2018-06-10T11:04:23.235Z,80.40
2018-06-10T11:06:52.345Z,78.77
2018-06-10T11:09:21.474Z,84.33
2018-06-10T11:11:50.621Z,86.43
2018-06-10T11:14:19.723Z,93.27
2018-06-10T11:16:48.870Z,85.47
2018-06-10T11:19:18.125Z,83.90
2018-06-10T11:21:47.250Z,84.60
2018-06-10T11:24:16.433Z,93.50
2018-06-10T11:26:45.538Z,97.70
2018-06-10T11:29:15.130Z,101.97
2018-06-10T11:31:44.323Z,93.00
2018-06-10T11:34:13.447Z,99.77
2018-06-10T11:36:42.617Z,101.33
2018-06-10T11:42:34.518Z,99.17
2018-06-10T11:45:03.689Z,90.20
2018-06-10T11:47:32.829Z,100.70
2018-06-10T11:50:02.271Z,92.60
2018-06-10T11:52:31.408Z,93.37
2018-06-10T11:55:00.609Z,88.70
2018-06-10T11:57:30.008Z,78.77
2018-06-10T12:00:01.169Z,90.87
2018-06-10T12:02:30.310Z,84.93
2018-06-10T12:04:59.473Z,82.57
2018-06-10T12:07:28.729Z,76.57
2018-06-10T12:09:58.981Z,73.23
2018-06-10T12:12:29.185Z,69.27
2018-06-10T12:14:58.326Z,71.17
2018-06-10T12:17:27.598Z,75.47
2018-06-10T12:19:56.834Z,65.00
2018-06-10T12:22:27.051Z,65.10
2018-06-10T12:24:56.238Z,69.07
2018-06-10T12:27:25.366Z,65.93
2018-06-10T12:29:54.687Z,64.83
2018-06-10T12:32:23.830Z,60.50
2018-06-10T12:34:54.010Z,58.57
2018-06-10T12:37:23.178Z,60.23
2018-06-10T12:39:52.315Z,57.07
2018-06-10T12:42:21.498Z,49.50
2018-06-10T12:44:50.734Z,52.07
2018-06-10T12:47:20.110Z,55.37
2018-06-10T12:49:49.807Z,52.63
2018-06-10T12:52:19.188Z,50.97
2018-06-10T12:54:48.414Z,52.03
2018-06-10T12:57:17.598Z,50.13
2018-06-10T12:59:46.970Z,49.20
2018-06-10T13:02:16.161Z,48.17
2018-06-10T13:04:45.362Z,47.60
2018-06-10T13:07:14.534Z,47.03
2018-06-10T13:09:43.690Z,55.00
2018-06-10T13:12:12.853Z,45.97
2018-06-10T13:14:42.007Z,53.97
2018-06-10T13:17:11.202Z,54.23
2018-06-10T13:19:40.343Z,51.23
2018-06-10T13:22:09.490Z,52.13
2018-06-10T13:24:38.672Z,44.73
2018-06-10T13:27:07.807Z,46.97
2018-06-10T13:29:36.990Z,52.60
2018-06-10T13:32:08.230Z,50.50
2018-06-10T13:34:37.395Z,50.53
2018-06-10T13:37:06.558Z,50.63
2018-06-10T13:39:35.669Z,49.67
2018-06-10T13:42:04.889Z,46.03
2018-06-10T13:44:34.062Z,46.03
2018-06-10T13:47:03.330Z,47.03
2018-06-10T13:49:32.482Z,48.63
2018-06-10T13:52:01.623Z,47.70
2018-06-10T13:54:30.777Z,42.93
2018-06-10T13:56:59.953Z,47.37
2018-06-10T13:59:29.118Z,43.53
2018-06-10T14:01:58.305Z,44.97
2018-06-10T14:04:27.466Z,42.73
2018-06-10T14:06:56.626Z,51.47
2018-06-10T14:09:25.789Z,47.37
2018-06-10T14:11:54.942Z,46.80
2018-06-10T14:14:24.085Z,47.03
2018-06-10T14:16:53.284Z,51.53
2018-06-10T14:19:22.421Z,47.10
2018-06-10T14:21:51.590Z,54.07
2018-06-10T14:24:20.745Z,53.00
2018-06-10T14:26:49.950Z,44.83
2018-06-10T14:29:19.093Z,53.73
2018-06-10T14:31:48.302Z,47.57
2018-06-10T14:34:17.445Z,51.17
2018-06-10T14:36:46.618Z,53.87
2018-06-10T14:39:15.760Z,49.23
2018-06-10T14:41:44.936Z,48.47
2018-06-10T14:44:14.071Z,46.53
2018-06-10T14:46:43.530Z,55.40
2018-06-10T14:49:12.661Z,55.13
2018-06-10T14:51:42.953Z,50.70
2018-06-10T14:54:12.114Z,55.80
2018-06-10T14:56:41.262Z,58.20
2018-06-10T14:59:10.370Z,56.37
2018-06-10T15:01:39.503Z,67.80
2018-06-10T15:04:08.663Z,65.70
2018-06-10T15:06:38.318Z,60.20
2018-06-10T15:09:08.603Z,64.83
2018-06-10T15:11:37.849Z,59.63
2018-06-10T15:14:07.069Z,62.67
2018-06-10T15:16:36.238Z,61.90
2018-06-10T15:19:05.423Z,65.03
2018-06-10T15:21:34.549Z,63.73
2018-06-10T15:24:03.684Z,66.10
2018-06-10T15:26:33.053Z,52.87
2018-06-10T15:29:02.219Z,56.00
2018-06-10T15:31:31.357Z,60.53
2018-06-10T15:34:01.573Z,58.90
2018-06-10T15:36:30.709Z,60.60
2018-06-10T15:38:59.866Z,55.87
2018-06-10T15:41:28.987Z,57.23
2018-06-10T15:43:58.162Z,49.33
2018-06-10T15:46:27.342Z,52.43
2018-06-10T15:48:56.450Z,55.37
2018-06-10T15:51:25.586Z,49.50
2018-06-10T15:53:54.749Z,46.10
2018-06-10T15:56:23.942Z,43.83
2018-06-10T15:58:53.081Z,37.30
2018-06-10T16:01:22.274Z,34.43
2018-06-10T16:03:51.469Z,40.80
2018-06-10T16:06:20.606Z,36.57
2018-06-10T16:08:49.767Z,34.10
2018-06-10T16:11:18.918Z,38.80
2018-06-10T16:13:48.120Z,38.27
2018-06-10T16:16:17.362Z,33.43
2018-06-10T16:18:46.529Z,34.80
2018-06-10T16:21:15.678Z,32.97
2018-06-10T16:23:44.803Z,28.70
2018-06-10T16:26:13.955Z,28.00
2018-06-10T16:28:43.089Z,28.57
2018-06-10T16:31:12.225Z,26.57
2018-06-10T16:33:41.412Z,26.20
2018-06-10T16:36:10.543Z,28.20
2018-06-10T16:38:39.716Z,25.00
2018-06-10T16:41:08.907Z,25.37
2018-06-10T16:43:38.035Z,24.67
2018-06-10T16:46:07.202Z,27.87
2018-06-10T16:48:36.396Z,25.13
2018-06-10T16:51:05.604Z,22.40
2018-06-10T16:53:34.702Z,29.30
2018-06-10T16:56:03.874Z,26.97
2018-06-10T16:58:33.017Z,27.63
2018-06-10T17:01:02.150Z,24.03
2018-06-10T17:03:31.290Z,27.30
2018-06-10T17:06:01.015Z,29.23
2018-06-10T17:08:30.170Z,28.77
2018-06-10T17:10:59.314Z,25.20
2018-06-10T17:13:28.512Z,23.70
2018-06-10T17:15:57.633Z,27.57
2018-06-10T17:18:26.769Z,23.90
2018-06-10T17:20:55.941Z,24.17
2018-06-10T17:23:25.104Z,24.17
2018-06-10T17:25:54.302Z,26.33
2018-06-10T17:28:23.497Z,24.17
2018-06-10T17:30:52.592Z,26.00
2018-06-10T17:33:21.717Z,26.77
2018-06-10T17:35:50.869Z,26.80
2018-06-10T17:38:20.133Z,23.03
2018-06-10T17:40:49.279Z,28.70
2018-06-10T17:43:18.425Z,26.30
2018-06-10T17:45:47.543Z,28.57
2018-06-10T17:48:16.710Z,25.53
2018-06-10T17:50:45.845Z,23.67
2018-06-10T17:53:14.991Z,29.23
2018-06-10T17:55:44.161Z,20.23
2018-06-10T17:58:13.301Z,27.17
2018-06-10T18:00:42.469Z,26.60
2018-06-10T18:03:11.607Z,26.93
2018-06-10T18:05:40.723Z,24.03
2018-06-10T18:08:09.895Z,24.37
2018-06-10T18:10:41.248Z,24.70
2018-06-10T18:13:10.382Z,27.17
2018-06-10T18:15:40.484Z,26.00
2018-06-10T18:18:09.626Z,23.33
2018-06-10T18:20:38.803Z,23.80
2018-06-10T18:23:08.205Z,24.50
2018-06-10T18:25:37.338Z,27.03
2018-06-10T18:28:06.509Z,21.97
2018-06-10T18:30:35.677Z,25.47
2018-06-10T18:33:04.861Z,24.63
2018-06-10T18:35:34.023Z,22.60
2018-06-10T18:38:03.323Z,22.50
2018-06-10T18:40:32.467Z,23.97
2018-06-10T18:43:01.708Z,22.87
2018-06-10T18:45:30.867Z,22.27
2018-06-10T18:48:00.337Z,20.67
2018-06-10T18:50:29.502Z,22.03
2018-06-10T18:52:58.623Z,18.60
2018-06-10T18:55:28.577Z,20.53
2018-06-10T18:57:57.760Z,22.43
2018-06-10T19:00:26.912Z,21.00
2018-06-10T19:02:56.334Z,19.17
2018-06-10T19:05:25.526Z,22.23
2018-06-10T19:07:54.644Z,21.10
2018-06-10T19:10:23.804Z,19.63
2018-06-10T19:12:52.914Z,21.20
2018-06-10T19:15:22.061Z,20.67
2018-06-10T19:17:51.274Z,22.67
2018-06-10T19:20:20.426Z,18.30
2018-06-10T19:22:49.872Z,22.53
2018-06-10T19:25:19.062Z,21.83
2018-06-10T19:27:48.201Z,20.20
2018-06-10T19:30:17.340Z,21.67
2018-06-10T19:32:46.551Z,20.93
2018-06-10T19:35:15.661Z,21.93
2018-06-10T19:37:44.813Z,20.63
2018-06-10T19:40:15.001Z,19.57
2018-06-10T19:42:44.121Z,22.90
2018-06-10T19:45:13.596Z,21.83
2018-06-10T19:47:43.346Z,21.37
2018-06-10T19:50:12.538Z,19.57
2018-06-10T19:52:41.717Z,20.03
2018-06-10T19:55:10.860Z,21.97
2018-06-10T19:57:40.310Z,22.23
2018-06-10T20:00:09.476Z,20.43
2018-06-10T20:02:38.656Z,23.33
2018-06-10T20:05:07.801Z,20.90
2018-06-10T20:07:37.106Z,22.97
2018-06-10T20:10:06.517Z,21.53
2018-06-10T20:12:35.669Z,21.97
2018-06-10T20:15:04.872Z,23.50
2018-06-10T20:17:34.066Z,23.87
2018-06-10T20:20:04.453Z,25.07
2018-06-10T20:22:33.639Z,26.80
2018-06-10T20:25:03.550Z,26.40
2018-06-10T20:27:32.700Z,18.57
2018-06-10T20:30:01.893Z,22.53
2018-06-10T20:32:31.025Z,23.57
2018-06-10T20:35:00.210Z,22.47
2018-06-10T20:37:29.361Z,22.77
2018-06-10T20:39:58.846Z,27.00
2018-06-10T20:42:28.014Z,25.30
2018-06-10T20:44:57.165Z,26.63
2018-06-10T20:47:26.282Z,26.90
2018-06-10T20:49:55.684Z,25.90
2018-06-10T20:52:24.865Z,24.63
2018-06-10T20:54:53.998Z,23.93
2018-06-10T20:57:23.167Z,26.73
2018-06-10T20:59:52.308Z,24.13
2018-06-10T21:02:22.527Z,23.47
2018-06-10T21:04:51.676Z,26.90
2018-06-10T21:07:20.815Z,26.27
2018-06-10T21:09:49.934Z,24.53
2018-06-10T21:12:19.055Z,24.03
2018-06-10T21:14:48.179Z,25.90
2018-06-10T21:17:17.316Z,25.33
2018-06-10T21:19:46.445Z,25.20
2018-06-10T21:22:15.569Z,26.13
2018-06-10T21:24:44.773Z,25.93
2018-06-10T21:27:13.934Z,22.77
2018-06-10T21:29:43.074Z,25.57
2018-06-10T21:32:12.201Z,26.30
2018-06-10T21:34:41.401Z,26.40
2018-06-10T21:37:10.541Z,26.57
2018-06-10T21:39:39.657Z,23.30
2018-06-10T21:42:08.801Z,25.40
2018-06-10T21:44:37.942Z,24.30
2018-06-10T21:47:07.086Z,27.40
2018-06-10T21:49:36.221Z,27.03
2018-06-10T21:52:05.393Z,28.97
2018-06-10T21:54:34.533Z,27.53
2018-06-10T21:57:03.690Z,26.47
2018-06-10T21:59:32.880Z,26.43
2018-06-10T22:02:02.192Z,27.00
2018-06-10T22:04:31.345Z,25.83
2018-06-10T22:07:00.514Z,26.53
2018-06-10T22:09:29.626Z,25.13
2018-06-10T22:11:58.951Z,26.40
2018-06-10T22:14:28.098Z,26.60
2018-06-10T22:16:57.246Z,24.90
2018-06-10T22:19:26.373Z,25.13
2018-06-10T22:21:55.566Z,25.37
2018-06-10T22:24:24.802Z,24.97
2018-06-10T22:26:53.953Z,25.07
2018-06-10T22:29:23.070Z,27.33
2018-06-10T22:31:52.253Z,25.70
2018-06-10T22:34:21.375Z,22.60
2018-06-10T22:36:50.545Z,23.50
2018-06-10T22:39:19.657Z,24.97
2018-06-10T22:41:48.800Z,24.07
2018-06-10T22:44:17.936Z,23.10
2018-06-10T22:46:48.130Z,25.50
2018-06-10T22:49:17.261Z,23.97
2018-06-10T22:51:46.425Z,23.40
2018-06-10T22:54:50.179Z,24.63
2018-06-10T22:57:19.313Z,22.77
2018-06-10T22:59:48.445Z,24.53
2018-06-10T23:02:17.575Z,26.70
2018-06-10T23:04:46.693Z,25.90
2018-06-10T23:07:15.897Z,22.50
2018-06-10T23:09:44.967Z,23.60
2018-06-10T23:12:14.097Z,22.83
2018-06-10T23:14:43.233Z,23.90
2018-06-10T23:17:12.366Z,23.63
2018-06-10T23:19:41.517Z,20.97
2018-06-10T23:34:01.538Z,24.87
2018-06-10T23:36:30.701Z,24.90
2018-06-10T23:38:59.837Z,24.40
2018-06-10T23:41:28.963Z,24.37
2018-06-10T23:43:58.407Z,24.57
2018-06-10T23:46:27.510Z,26.63
2018-06-10T23:48:56.626Z,25.10
2018-06-10T23:51:25.864Z,25.17
2018-06-10T23:53:55.565Z,23.80
2018-06-10T23:56:24.695Z,23.67
2018-06-10T23:58:53.801Z,25.27
